Terminal Aerodrome Forecast
Issued by NWS

Home | Current Version | Previous Version | Text Only | Print | Product List | Glossary On
Versions: 1 2 3 4 5 6 7 8 9 10 11 12 13 14
000
FTUS46 KOTX 221143 CCA
TAFPUW
TAF COR
KPUW 221143Z 2212/2312 10013KT P6SM SCT070 BKN150
     FM221900 11014KT P6SM OVC070
     FM222100 12009KT P6SM -RA SCT030 OVC050
     FM230500 10004KT P6SM SCT050 BKN150=

USA.gov is the U.S. government's official web portal to all federal, state and local government web resources and services.